KWAL/WAL METAR and TAF weather

Enter ICAO airport designator
Station Type Date Time Source
KWAL METAR 2020/12/05 23:54 UTC NOAA

KWAL 052354Z AUTO 30009KT 10SM OVC050 07/M02 A2992 RMK AO2 SLP129 T00721017 10111 20072 51026 $


Station Type Date Time Source
KWAL Decoded METAR 2020/12/05 23:54 UTC NOAA

WALLOPS FLIGHT FAC AIRPORT , VA, United States (KWAL) 37-56N 075-28W 14M
Dec 05, 2020 - 06:54 PM EST / 2020.12.05 2354 UTC
Wind: from the WNW (300 degrees) at 10 MPH (9 KT):0
Visibility: 10 mile(s):0
Sky conditions: overcast
Temperature: 45.0 F (7.2 C)
Dew Point: 28.9 F (-1.7 C)
Relative Humidity: 53%
Pressure (altimeter): 29.92 in. Hg (1013 hPa)
Pressure tendency: 0.08 inches (2.6 hPa) higher than three hours ago
ob: KWAL 052354Z AUTO 30009KT 10SM OVC050 07/M02 A2992 RMK AO2 SLP129 T00721017 10111 20072 51026
cycle: 0

Station Type Date Time Source
KWAL TAF UTC NOAA

Error!

Example: see airport list